الصفحة الرئيسية
METAR-TAF:

METAR-TAF

مطار :

فلاديقوقاز, روسيا

دائرة عرض: 43-12-18N, خط طول: 044-36-24E, ارتفاع: 510 متر

مراقبة الطقس الحالي

تاريخ ووقت الإصدار 41 دقيقة قبل الساعة 18:00UTC
ريح 4 عقدة من الشمال الغربي, الاتجاه يتراوح بين الغرب و الشمال/الشمال الغربي
درجة الحرارة 20°درجة مئوية
الرطوبة 64%
ضغط 1012 hPa
الرؤية 10 كم أو أكثر
غيوم متفرقة

METAR: URMO 221800Z 31002MPS 260V330 9999 SCT/// 20/13 Q1012 R27/010070 NOSIG RMK QFE714/0953

زمن: 21:41 (18:41 UTC)

توقعات

تاريخ ووقت الإصدار 1ساعة و 41 دقيقة قبل الساعة 17:00UTC
التوقعات صالحة من22 الساعة 18 UTC إلى 23 الساعة 03 UTC
ريح 6 عقدة من الغرب/الشمال الغربي تتزايد حتى 16 عقدة
الرؤية 10 كم أو أكثر
غيوم متفرقة على ارتفاع 5500 قدم

TAF: URMO 221700Z 2218/2303 29003G08MPS 9999 SCT055

أرصاد الطقس والتوقعات من أكثر من 4000 مطار (تقارير الطقس للمطار METAR والتنبؤ بالطقس بالمطارTAF).

المحطات المتاحة هي النقط الصفراء والحمراء على الخريطة.

حرك المؤشر فوق النقطة لمعرفة اسم المحطة.

ثم انقر لمعرفة أرصاد وتوقعات الطقس.

لتغيير الخارطة: اضغط على الأزرار الخضراء مع رمز الصليب الأسود للتكبير. على الزر الأخضر مع شرطة للتصغير، أو على الأسهم الخضراء للخرائط المجاورة.


METAR-TAF: